sensor_id;sensor_type;location;lat;lon;timestamp;pressure;altitude;pressure_sealevel;temperature;humidity
46598;BME280;32318;48.858;8.252;2022-08-21T00:02:27;100365.81;;;19.45;54.75
46598;BME280;32318;48.858;8.252;2022-08-21T00:10:27;100365.66;;;19.40;54.81
46598;BME280;32318;48.858;8.252;2022-08-21T00:18:28;100363.38;;;19.37;55.08
46598;BME280;32318;48.858;8.252;2022-08-21T00:26:28;100355.13;;;19.25;55.43
46598;BME280;32318;48.858;8.252;2022-08-21T00:34:28;100346.88;;;19.13;55.36
46598;BME280;32318;48.858;8.252;2022-08-21T00:42:29;100345.47;;;19.04;55.85
46598;BME280;32318;48.858;8.252;2022-08-21T00:50:32;100341.16;;;18.96;56.41
46598;BME280;32318;48.858;8.252;2022-08-21T00:58:33;100344.06;;;18.88;55.99
46598;BME280;32318;48.858;8.252;2022-08-21T01:06:35;100335.41;;;18.79;56.41
46598;BME280;32318;48.858;8.252;2022-08-21T01:14:36;100343.13;;;18.69;56.12
46598;BME280;32318;48.858;8.252;2022-08-21T01:22:37;100337.97;;;18.60;56.63
46598;BME280;32318;48.858;8.252;2022-08-21T01:30:39;100332.41;;;18.55;56.76
46598;BME280;32318;48.858;8.252;2022-08-21T01:38:40;100324.31;;;18.42;57.10
46598;BME280;32318;48.858;8.252;2022-08-21T01:46:40;100331.81;;;18.40;56.92
46598;BME280;32318;48.858;8.252;2022-08-21T01:54:41;100333.50;;;18.34;56.95
46598;BME280;32318;48.858;8.252;2022-08-21T02:02:41;100325.22;;;18.22;57.15
46598;BME280;32318;48.858;8.252;2022-08-21T02:10:42;100318.59;;;18.18;57.31
46598;BME280;32318;48.858;8.252;2022-08-21T02:18:43;100312.56;;;18.09;57.53
46598;BME280;32318;48.858;8.252;2022-08-21T02:26:43;100307.41;;;18.01;58.06
46598;BME280;32318;48.858;8.252;2022-08-21T02:34:43;100303.63;;;17.95;57.84
46598;BME280;32318;48.858;8.252;2022-08-21T02:42:44;100304.50;;;17.89;58.19
46598;BME280;32318;48.858;8.252;2022-08-21T02:50:52;100304.09;;;17.79;59.59
46598;BME280;32318;48.858;8.252;2022-08-21T02:58:53;100305.56;;;17.68;58.62
46598;BME280;32318;48.858;8.252;2022-08-21T03:06:54;100309.31;;;17.60;58.30
46598;BME280;32318;48.858;8.252;2022-08-21T03:14:54;100310.78;;;17.56;58.67
46598;BME280;32318;48.858;8.252;2022-08-21T03:22:54;100304.75;;;17.54;58.65
46598;BME280;32318;48.858;8.252;2022-08-21T03:30:55;100306.00;;;17.45;59.05
46598;BME280;32318;48.858;8.252;2022-08-21T03:38:55;100298.09;;;17.36;58.98
46598;BME280;32318;48.858;8.252;2022-08-21T03:46:57;100302.03;;;17.27;59.46
46598;BME280;32318;48.858;8.252;2022-08-21T03:54:57;100299.56;;;17.25;58.85
46598;BME280;32318;48.858;8.252;2022-08-21T04:02:57;100310.53;;;17.11;59.59
46598;BME280;32318;48.858;8.252;2022-08-21T04:10:58;100312.44;;;17.10;59.69
46598;BME280;32318;48.858;8.252;2022-08-21T04:18:58;100319.47;;;17.18;59.31
46598;BME280;32318;48.858;8.252;2022-08-21T04:26:59;100326.31;;;17.14;59.68
46598;BME280;32318;48.858;8.252;2022-08-21T04:35:02;100338.56;;;17.09;59.57
46598;BME280;32318;48.858;8.252;2022-08-21T04:43:07;100351.19;;;17.02;60.21
46598;BME280;32318;48.858;8.252;2022-08-21T04:51:14;100357.63;;;17.01;60.88
46598;BME280;32318;48.858;8.252;2022-08-21T04:59:19;100363.44;;;17.05;60.31
46598;BME280;32318;48.858;8.252;2022-08-21T05:07:26;100370.50;;;16.99;60.33
46598;BME280;32318;48.858;8.252;2022-08-21T05:15:27;100370.94;;;17.03;59.37
46598;BME280;32318;48.858;8.252;2022-08-21T05:23:28;100379.44;;;17.06;59.73
46598;BME280;32318;48.858;8.252;2022-08-21T05:31:28;100371.56;;;17.18;59.62
46598;BME280;32318;48.858;8.252;2022-08-21T05:39:28;100366.63;;;17.29;59.53
46598;BME280;32318;48.858;8.252;2022-08-21T05:47:29;100356.69;;;17.43;59.00
46598;BME280;32318;48.858;8.252;2022-08-21T05:55:29;100349.41;;;17.70;58.82
46598;BME280;32318;48.858;8.252;2022-08-21T06:03:33;100355.16;;;18.21;57.82
46598;BME280;32318;48.858;8.252;2022-08-21T06:11:34;100364.25;;;18.92;56.00
46598;BME280;32318;48.858;8.252;2022-08-21T06:19:35;100364.63;;;19.59;54.46
46598;BME280;32318;48.858;8.252;2022-08-21T06:27:36;100366.19;;;19.99;53.99
46598;BME280;32318;48.858;8.252;2022-08-21T06:35:36;100373.06;;;20.58;52.97
46598;BME280;32318;48.858;8.252;2022-08-21T06:43:37;100373.75;;;20.72;53.06
46598;BME280;32318;48.858;8.252;2022-08-21T06:51:38;100363.81;;;20.65;53.89
46598;BME280;32318;48.858;8.252;2022-08-21T06:59:38;100374.28;;;20.62;54.38
46598;BME280;32318;48.858;8.252;2022-08-21T07:07:39;100366.28;;;20.67;54.06
46598;BME280;32318;48.858;8.252;2022-08-21T07:15:39;100373.75;;;20.72;54.10
46598;BME280;32318;48.858;8.252;2022-08-21T07:23:42;100368.72;;;20.75;54.01
46598;BME280;32318;48.858;8.252;2022-08-21T07:31:44;100366.41;;;20.91;53.37
46598;BME280;32318;48.858;8.252;2022-08-21T07:39:44;100362.97;;;21.14;53.11
46598;BME280;32318;48.858;8.252;2022-08-21T07:47:48;100351.06;;;21.15;53.00
46598;BME280;32318;48.858;8.252;2022-08-21T07:55:48;100352.97;;;21.26;53.11
46598;BME280;32318;48.858;8.252;2022-08-21T08:03:49;100356.06;;;21.42;52.89
46598;BME280;32318;48.858;8.252;2022-08-21T08:11:50;100356.31;;;21.40;52.80
46598;BME280;32318;48.858;8.252;2022-08-21T08:19:50;100344.75;;;21.57;52.44
46598;BME280;32318;48.858;8.252;2022-08-21T08:27:50;100334.38;;;21.77;51.94
46598;BME280;32318;48.858;8.252;2022-08-21T08:35:51;100337.00;;;21.96;51.57
46598;BME280;32318;48.858;8.252;2022-08-21T08:43:55;100329.88;;;22.19;50.82
46598;BME280;32318;48.858;8.252;2022-08-21T08:52:02;100322.84;;;22.35;50.19
46598;BME280;32318;48.858;8.252;2022-08-21T09:00:10;100312.69;;;22.54;49.59
46598;BME280;32318;48.858;8.252;2022-08-21T09:16:47;100288.66;;;22.80;47.45
46598;BME280;32318;48.858;8.252;2022-08-21T09:33:17;100267.66;;;23.09;47.42
46598;BME280;32318;48.858;8.252;2022-08-21T09:41:26;100270.19;;;23.16;46.61
46598;BME280;32318;48.858;8.252;2022-08-21T09:49:32;100258.66;;;23.43;45.00
46598;BME280;32318;48.858;8.252;2022-08-21T09:57:33;100261.88;;;23.57;45.16
46598;BME280;32318;48.858;8.252;2022-08-21T10:05:40;100265.38;;;23.74;44.88
46598;BME280;32318;48.858;8.252;2022-08-21T10:22:35;100245.34;;;24.03;43.25
46598;BME280;32318;48.858;8.252;2022-08-21T10:39:36;100229.97;;;24.68;38.38
46598;BME280;32318;48.858;8.252;2022-08-21T10:47:49;100227.00;;;24.70;41.84
46598;BME280;32318;48.858;8.252;2022-08-21T10:56:01;100216.81;;;24.93;39.20
46598;BME280;32318;48.858;8.252;2022-08-21T11:04:12;100212.13;;;25.26;39.99
46598;BME280;32318;48.858;8.252;2022-08-21T11:12:42;100204.28;;;25.34;39.58
46598;BME280;32318;48.858;8.252;2022-08-21T11:20:50;100192.31;;;25.46;38.78
46598;BME280;32318;48.858;8.252;2022-08-21T11:28:54;100183.22;;;25.35;39.42
46598;BME280;32318;48.858;8.252;2022-08-21T11:45:39;100177.56;;;25.42;38.53
46598;BME280;32318;48.858;8.252;2022-08-21T11:53:51;100174.09;;;25.57;37.66
46598;BME280;32318;48.858;8.252;2022-08-21T12:01:55;100159.91;;;25.70;38.45
46598;BME280;32318;48.858;8.252;2022-08-21T12:09:57;100159.97;;;25.80;37.34
46598;BME280;32318;48.858;8.252;2022-08-21T12:18:01;100147.97;;;25.92;37.78
46598;BME280;32318;48.858;8.252;2022-08-21T12:34:34;100144.22;;;26.29;35.61
46598;BME280;32318;48.858;8.252;2022-08-21T12:42:41;100132.47;;;26.49;35.30
46598;BME280;32318;48.858;8.252;2022-08-21T12:50:48;100128.38;;;26.67;35.01
46598;BME280;32318;48.858;8.252;2022-08-21T12:58:53;100137.38;;;27.14;32.76
46598;BME280;32318;48.858;8.252;2022-08-21T13:06:55;100121.47;;;27.16;32.78
46598;BME280;32318;48.858;8.252;2022-08-21T13:15:01;100124.44;;;27.35;33.26
46598;BME280;32318;48.858;8.252;2022-08-21T13:23:28;100116.09;;;27.71;33.48
46598;BME280;32318;48.858;8.252;2022-08-21T13:31:27;100110.50;;;27.87;33.24
46598;BME280;32318;48.858;8.252;2022-08-21T13:39:31;100109.34;;;27.98;33.43
46598;BME280;32318;48.858;8.252;2022-08-21T13:47:31;100103.25;;;28.12;33.42
46598;BME280;32318;48.858;8.252;2022-08-21T13:55:42;100092.19;;;28.22;33.08
46598;BME280;32318;48.858;8.252;2022-08-21T14:03:44;100092.75;;;28.19;31.12
46598;BME280;32318;48.858;8.252;2022-08-21T14:11:45;100079.41;;;28.02;30.62
46598;BME280;32318;48.858;8.252;2022-08-21T14:19:46;100071.47;;;28.00;30.87
46598;BME280;32318;48.858;8.252;2022-08-21T14:36:08;100059.72;;;28.35;31.15
46598;BME280;32318;48.858;8.252;2022-08-21T14:44:10;100045.44;;;28.62;31.21
46598;BME280;32318;48.858;8.252;2022-08-21T14:52:10;100032.91;;;28.51;30.98
46598;BME280;32318;48.858;8.252;2022-08-21T15:00:14;100031.00;;;28.51;31.30
46598;BME280;32318;48.858;8.252;2022-08-21T15:08:17;100030.13;;;28.56;30.07
46598;BME280;32318;48.858;8.252;2022-08-21T15:16:17;100026.69;;;28.40;30.53
46598;BME280;32318;48.858;8.252;2022-08-21T15:24:18;100021.38;;;28.24;30.09
46598;BME280;32318;48.858;8.252;2022-08-21T15:32:24;100021.97;;;28.16;31.10
46598;BME280;32318;48.858;8.252;2022-08-21T15:40:25;100020.91;;;28.12;31.21
46598;BME280;32318;48.858;8.252;2022-08-21T15:48:25;100014.97;;;27.94;31.21
46598;BME280;32318;48.858;8.252;2022-08-21T15:56:34;100008.22;;;27.81;30.77
46598;BME280;32318;48.858;8.252;2022-08-21T16:04:35;99995.34;;;27.82;30.09
46598;BME280;32318;48.858;8.252;2022-08-21T16:12:38;100002.00;;;27.70;30.19
46598;BME280;32318;48.858;8.252;2022-08-21T16:20:40;100012.72;;;27.62;30.06
46598;BME280;32318;48.858;8.252;2022-08-21T16:28:42;99993.94;;;27.39;30.16
46598;BME280;32318;48.858;8.252;2022-08-21T16:36:45;99989.56;;;27.38;28.80
46598;BME280;32318;48.858;8.252;2022-08-21T16:44:46;99984.72;;;27.20;29.53
46598;BME280;32318;48.858;8.252;2022-08-21T16:52:46;99979.81;;;27.06;29.97
46598;BME280;32318;48.858;8.252;2022-08-21T17:00:47;99976.06;;;26.92;29.99
46598;BME280;32318;48.858;8.252;2022-08-21T17:08:48;99970.63;;;26.71;30.25
46598;BME280;32318;48.858;8.252;2022-08-21T17:16:52;99975.06;;;26.52;30.11
46598;BME280;32318;48.858;8.252;2022-08-21T17:24:53;99971.81;;;26.39;30.17
46598;BME280;32318;48.858;8.252;2022-08-21T17:32:54;99981.13;;;26.28;30.66
46598;BME280;32318;48.858;8.252;2022-08-21T17:40:56;99971.00;;;26.08;31.12
46598;BME280;32318;48.858;8.252;2022-08-21T17:48:57;99977.81;;;25.84;31.19
46598;BME280;32318;48.858;8.252;2022-08-21T17:56:58;99975.66;;;25.66;31.30
46598;BME280;32318;48.858;8.252;2022-08-21T18:05:00;99972.88;;;25.40;32.06
46598;BME280;32318;48.858;8.252;2022-08-21T18:13:06;99971.66;;;25.15;32.53
46598;BME280;32318;48.858;8.252;2022-08-21T18:21:07;99977.34;;;24.98;33.85
46598;BME280;32318;48.858;8.252;2022-08-21T18:29:10;99979.09;;;24.72;34.90
46598;BME280;32318;48.858;8.252;2022-08-21T18:37:12;99992.03;;;24.44;35.45
46598;BME280;32318;48.858;8.252;2022-08-21T18:45:16;100000.06;;;24.23;36.70
46598;BME280;32318;48.858;8.252;2022-08-21T18:53:17;100000.94;;;23.96;37.40
46598;BME280;32318;48.858;8.252;2022-08-21T19:01:17;99993.38;;;23.76;37.52
46598;BME280;32318;48.858;8.252;2022-08-21T19:09:18;100006.00;;;23.60;37.76
46598;BME280;32318;48.858;8.252;2022-08-21T19:17:19;100016.06;;;23.32;38.77
46598;BME280;32318;48.858;8.252;2022-08-21T19:25:21;100013.78;;;23.24;39.18
46598;BME280;32318;48.858;8.252;2022-08-21T19:33:27;100022.63;;;23.14;40.73
46598;BME280;32318;48.858;8.252;2022-08-21T19:41:31;100025.16;;;22.99;40.12
46598;BME280;32318;48.858;8.252;2022-08-21T19:49:33;100025.84;;;22.89;40.74
46598;BME280;32318;48.858;8.252;2022-08-21T19:57:34;100015.31;;;22.76;40.84
46598;BME280;32318;48.858;8.252;2022-08-21T20:05:35;100026.63;;;22.67;41.18
46598;BME280;32318;48.858;8.252;2022-08-21T20:13:36;100022.69;;;22.58;41.20
46598;BME280;32318;48.858;8.252;2022-08-21T20:21:37;100030.69;;;22.48;41.35
46598;BME280;32318;48.858;8.252;2022-08-21T20:29:38;100033.16;;;22.32;41.01
46598;BME280;32318;48.858;8.252;2022-08-21T20:37:38;100031.84;;;22.18;41.35
46598;BME280;32318;48.858;8.252;2022-08-21T20:45:39;100030.66;;;22.14;41.66
46598;BME280;32318;48.858;8.252;2022-08-21T20:54:03;100033.53;;;22.07;42.31
46598;BME280;32318;48.858;8.252;2022-08-21T21:02:23;100033.72;;;22.00;43.36
46598;BME280;32318;48.858;8.252;2022-08-21T21:10:31;100022.06;;;21.88;42.22
46598;BME280;32318;48.858;8.252;2022-08-21T21:18:38;100020.75;;;21.73;42.95
46598;BME280;32318;48.858;8.252;2022-08-21T21:26:57;100030.94;;;21.66;44.07
46598;BME280;32318;48.858;8.252;2022-08-21T21:34:59;100035.06;;;21.57;42.50
46598;BME280;32318;48.858;8.252;2022-08-21T21:51:44;100029.91;;;21.43;44.55
46598;BME280;32318;48.858;8.252;2022-08-21T22:00:14;100029.47;;;21.35;44.36
46598;BME280;32318;48.858;8.252;2022-08-21T22:16:43;100035.75;;;21.23;44.28
46598;BME280;32318;48.858;8.252;2022-08-21T22:24:48;100029.72;;;21.21;43.79
46598;BME280;32318;48.858;8.252;2022-08-21T22:32:49;100026.59;;;21.12;43.64
46598;BME280;32318;48.858;8.252;2022-08-21T22:40:49;100027.19;;;21.03;43.88
46598;BME280;32318;48.858;8.252;2022-08-21T22:48:53;100025.41;;;20.96;44.63
46598;BME280;32318;48.858;8.252;2022-08-21T22:57:09;100035.13;;;20.92;45.35
46598;BME280;32318;48.858;8.252;2022-08-21T23:13:24;100035.94;;;20.93;44.75
46598;BME280;32318;48.858;8.252;2022-08-21T23:21:34;100043.38;;;20.86;46.05
46598;BME280;32318;48.858;8.252;2022-08-21T23:38:05;100034.28;;;20.80;46.21
46598;BME280;32318;48.858;8.252;2022-08-21T23:46:30;100043.75;;;20.77;46.64
